sensor_id;sensor_type;location;lat;lon;timestamp;P1;durP1;ratioP1;P2;durP2;ratioP2
54959;SDS011;40860;51.710;8.736;2023-07-08T00:02:33;3.35;;;2.55;;
54959;SDS011;40860;51.710;8.736;2023-07-08T00:06:36;3.25;;;2.55;;
54959;SDS011;40860;51.710;8.736;2023-07-08T00:10:39;3.65;;;2.55;;
54959;SDS011;40860;51.710;8.736;2023-07-08T00:14:43;3.28;;;2.58;;
54959;SDS011;40860;51.710;8.736;2023-07-08T00:18:47;3.13;;;2.50;;
54959;SDS011;40860;51.710;8.736;2023-07-08T00:22:50;4.03;;;2.45;;
54959;SDS011;40860;51.710;8.736;2023-07-08T00:26:53;4.90;;;2.40;;
54959;SDS011;40860;51.710;8.736;2023-07-08T00:30:57;3.40;;;2.63;;
54959;SDS011;40860;51.710;8.736;2023-07-08T00:35:00;3.47;;;2.67;;
54959;SDS011;40860;51.710;8.736;2023-07-08T00:39:05;3.53;;;2.67;;
54959;SDS011;40860;51.710;8.736;2023-07-08T00:43:15;3.13;;;2.30;;
54959;SDS011;40860;51.710;8.736;2023-07-08T00:47:22;4.60;;;2.50;;
54959;SDS011;40860;51.710;8.736;2023-07-08T00:51:25;2.67;;;2.47;;
54959;SDS011;40860;51.710;8.736;2023-07-08T00:55:28;7.13;;;2.70;;
54959;SDS011;40860;51.710;8.736;2023-07-08T00:59:32;3.22;;;2.30;;
54959;SDS011;40860;51.710;8.736;2023-07-08T01:03:42;4.25;;;2.38;;
54959;SDS011;40860;51.710;8.736;2023-07-08T01:07:52;3.80;;;2.45;;
54959;SDS011;40860;51.710;8.736;2023-07-08T01:12:00;3.85;;;2.60;;
54959;SDS011;40860;51.710;8.736;2023-07-08T01:16:06;5.45;;;2.80;;
54959;SDS011;40860;51.710;8.736;2023-07-08T01:20:11;5.68;;;2.40;;
54959;SDS011;40860;51.710;8.736;2023-07-08T01:24:17;2.90;;;2.60;;
54959;SDS011;40860;51.710;8.736;2023-07-08T01:28:20;2.83;;;2.63;;
54959;SDS011;40860;51.710;8.736;2023-07-08T01:32:23;3.85;;;2.53;;
54959;SDS011;40860;51.710;8.736;2023-07-08T01:36:26;3.58;;;2.78;;
54959;SDS011;40860;51.710;8.736;2023-07-08T01:40:34;2.80;;;2.50;;
54959;SDS011;40860;51.710;8.736;2023-07-08T01:44:38;4.43;;;2.80;;
54959;SDS011;40860;51.710;8.736;2023-07-08T01:48:42;2.92;;;2.47;;
54959;SDS011;40860;51.710;8.736;2023-07-08T01:52:49;3.35;;;2.70;;
54959;SDS011;40860;51.710;8.736;2023-07-08T01:56:56;4.38;;;2.65;;
54959;SDS011;40860;51.710;8.736;2023-07-08T02:01:00;3.17;;;2.80;;
54959;SDS011;40860;51.710;8.736;2023-07-08T02:05:03;5.35;;;2.67;;
54959;SDS011;40860;51.710;8.736;2023-07-08T02:09:06;4.32;;;2.67;;
54959;SDS011;40860;51.710;8.736;2023-07-08T02:13:10;3.80;;;2.95;;
54959;SDS011;40860;51.710;8.736;2023-07-08T02:17:13;3.45;;;2.70;;
54959;SDS011;40860;51.710;8.736;2023-07-08T02:21:17;3.67;;;2.83;;
54959;SDS011;40860;51.710;8.736;2023-07-08T02:25:20;3.55;;;2.90;;
54959;SDS011;40860;51.710;8.736;2023-07-08T02:29:25;4.38;;;3.25;;
54959;SDS011;40860;51.710;8.736;2023-07-08T02:33:29;3.38;;;3.08;;
54959;SDS011;40860;51.710;8.736;2023-07-08T02:37:34;4.07;;;3.40;;
54959;SDS011;40860;51.710;8.736;2023-07-08T02:41:38;3.40;;;2.92;;
54959;SDS011;40860;51.710;8.736;2023-07-08T02:45:42;3.75;;;2.90;;
54959;SDS011;40860;51.710;8.736;2023-07-08T02:49:45;3.35;;;2.55;;
54959;SDS011;40860;51.710;8.736;2023-07-08T02:53:49;4.85;;;3.00;;
54959;SDS011;40860;51.710;8.736;2023-07-08T02:57:52;5.82;;;2.58;;
54959;SDS011;40860;51.710;8.736;2023-07-08T03:01:56;5.28;;;3.20;;
54959;SDS011;40860;51.710;8.736;2023-07-08T03:05:59;4.57;;;3.00;;
54959;SDS011;40860;51.710;8.736;2023-07-08T03:10:03;3.20;;;2.85;;
54959;SDS011;40860;51.710;8.736;2023-07-08T03:14:07;3.72;;;2.88;;
54959;SDS011;40860;51.710;8.736;2023-07-08T03:18:12;6.45;;;3.28;;
54959;SDS011;40860;51.710;8.736;2023-07-08T03:22:15;6.22;;;2.72;;
54959;SDS011;40860;51.710;8.736;2023-07-08T03:26:18;6.72;;;3.25;;
54959;SDS011;40860;51.710;8.736;2023-07-08T03:30:25;4.18;;;2.72;;
54959;SDS011;40860;51.710;8.736;2023-07-08T03:34:30;5.68;;;2.67;;
54959;SDS011;40860;51.710;8.736;2023-07-08T03:38:33;7.90;;;2.80;;
54959;SDS011;40860;51.710;8.736;2023-07-08T03:42:36;4.68;;;2.65;;
54959;SDS011;40860;51.710;8.736;2023-07-08T03:46:40;3.20;;;2.90;;
54959;SDS011;40860;51.710;8.736;2023-07-08T03:50:45;4.53;;;2.60;;
54959;SDS011;40860;51.710;8.736;2023-07-08T03:54:49;2.90;;;2.70;;
54959;SDS011;40860;51.710;8.736;2023-07-08T03:58:52;3.75;;;2.85;;
54959;SDS011;40860;51.710;8.736;2023-07-08T04:02:56;7.35;;;3.33;;
54959;SDS011;40860;51.710;8.736;2023-07-08T04:07:01;4.70;;;2.88;;
54959;SDS011;40860;51.710;8.736;2023-07-08T04:11:04;4.05;;;2.97;;
54959;SDS011;40860;51.710;8.736;2023-07-08T04:15:07;4.30;;;2.60;;
54959;SDS011;40860;51.710;8.736;2023-07-08T04:19:12;5.15;;;2.75;;
54959;SDS011;40860;51.710;8.736;2023-07-08T04:23:18;5.85;;;3.10;;
54959;SDS011;40860;51.710;8.736;2023-07-08T04:27:21;6.75;;;2.85;;
54959;SDS011;40860;51.710;8.736;2023-07-08T04:31:24;5.72;;;2.88;;
54959;SDS011;40860;51.710;8.736;2023-07-08T04:35:27;3.00;;;2.78;;
54959;SDS011;40860;51.710;8.736;2023-07-08T04:39:31;3.38;;;3.08;;
54959;SDS011;40860;51.710;8.736;2023-07-08T04:43:34;4.40;;;2.85;;
54959;SDS011;40860;51.710;8.736;2023-07-08T04:47:37;3.92;;;3.00;;
54959;SDS011;40860;51.710;8.736;2023-07-08T04:51:40;4.05;;;3.33;;
54959;SDS011;40860;51.710;8.736;2023-07-08T04:55:46;3.45;;;3.15;;
54959;SDS011;40860;51.710;8.736;2023-07-08T04:59:52;5.40;;;2.85;;
54959;SDS011;40860;51.710;8.736;2023-07-08T05:03:55;3.80;;;2.90;;
54959;SDS011;40860;51.710;8.736;2023-07-08T05:07:57;3.97;;;3.58;;
54959;SDS011;40860;51.710;8.736;2023-07-08T05:12:02;3.55;;;3.25;;
54959;SDS011;40860;51.710;8.736;2023-07-08T05:16:07;7.40;;;3.47;;
54959;SDS011;40860;51.710;8.736;2023-07-08T05:20:11;6.72;;;3.50;;
54959;SDS011;40860;51.710;8.736;2023-07-08T05:24:15;4.20;;;3.13;;
54959;SDS011;40860;51.710;8.736;2023-07-08T05:28:19;4.90;;;2.80;;
54959;SDS011;40860;51.710;8.736;2023-07-08T05:32:23;3.08;;;2.80;;
54959;SDS011;40860;51.710;8.736;2023-07-08T05:36:26;4.70;;;3.15;;
54959;SDS011;40860;51.710;8.736;2023-07-08T05:40:29;5.63;;;3.00;;
54959;SDS011;40860;51.710;8.736;2023-07-08T05:44:33;6.00;;;2.60;;
54959;SDS011;40860;51.710;8.736;2023-07-08T05:48:36;4.35;;;2.78;;
54959;SDS011;40860;51.710;8.736;2023-07-08T05:52:39;2.85;;;2.55;;
54959;SDS011;40860;51.710;8.736;2023-07-08T05:56:42;5.78;;;3.50;;
54959;SDS011;40860;51.710;8.736;2023-07-08T06:00:46;4.90;;;2.83;;
54959;SDS011;40860;51.710;8.736;2023-07-08T06:04:49;4.80;;;3.28;;
54959;SDS011;40860;51.710;8.736;2023-07-08T06:08:52;3.33;;;3.00;;
54959;SDS011;40860;51.710;8.736;2023-07-08T06:12:55;5.32;;;3.10;;
54959;SDS011;40860;51.710;8.736;2023-07-08T06:16:59;3.22;;;2.83;;
54959;SDS011;40860;51.710;8.736;2023-07-08T06:21:02;3.92;;;3.00;;
54959;SDS011;40860;51.710;8.736;2023-07-08T06:25:05;3.22;;;2.90;;
54959;SDS011;40860;51.710;8.736;2023-07-08T06:29:09;5.15;;;4.40;;
54959;SDS011;40860;51.710;8.736;2023-07-08T06:33:13;3.83;;;3.20;;
54959;SDS011;40860;51.710;8.736;2023-07-08T06:37:16;3.20;;;2.90;;
54959;SDS011;40860;51.710;8.736;2023-07-08T06:41:18;3.33;;;3.03;;
54959;SDS011;40860;51.710;8.736;2023-07-08T06:45:21;6.25;;;3.15;;
54959;SDS011;40860;51.710;8.736;2023-07-08T06:49:25;5.10;;;3.00;;
54959;SDS011;40860;51.710;8.736;2023-07-08T06:53:28;3.20;;;2.90;;
54959;SDS011;40860;51.710;8.736;2023-07-08T06:57:31;3.50;;;3.20;;
54959;SDS011;40860;51.710;8.736;2023-07-08T07:01:34;4.22;;;3.20;;
54959;SDS011;40860;51.710;8.736;2023-07-08T07:05:39;3.63;;;3.00;;
54959;SDS011;40860;51.710;8.736;2023-07-08T07:09:42;6.82;;;3.30;;
54959;SDS011;40860;51.710;8.736;2023-07-08T07:13:45;3.83;;;3.20;;
54959;SDS011;40860;51.710;8.736;2023-07-08T07:17:48;3.58;;;3.17;;
54959;SDS011;40860;51.710;8.736;2023-07-08T07:21:52;4.00;;;3.00;;
54959;SDS011;40860;51.710;8.736;2023-07-08T07:25:55;4.45;;;3.15;;
54959;SDS011;40860;51.710;8.736;2023-07-08T07:29:58;10.20;;;3.33;;
54959;SDS011;40860;51.710;8.736;2023-07-08T07:34:01;3.67;;;3.00;;
54959;SDS011;40860;51.710;8.736;2023-07-08T07:38:06;3.97;;;3.08;;
54959;SDS011;40860;51.710;8.736;2023-07-08T07:42:09;4.20;;;3.13;;
54959;SDS011;40860;51.710;8.736;2023-07-08T07:46:15;5.70;;;3.10;;
54959;SDS011;40860;51.710;8.736;2023-07-08T07:50:18;4.82;;;3.17;;
54959;SDS011;40860;51.710;8.736;2023-07-08T07:54:22;3.40;;;3.08;;
54959;SDS011;40860;51.710;8.736;2023-07-08T07:58:25;4.97;;;3.47;;
54959;SDS011;40860;51.710;8.736;2023-07-08T08:02:27;3.67;;;3.10;;
54959;SDS011;40860;51.710;8.736;2023-07-08T08:06:30;5.35;;;3.40;;
54959;SDS011;40860;51.710;8.736;2023-07-08T08:10:35;5.38;;;3.20;;
54959;SDS011;40860;51.710;8.736;2023-07-08T08:14:38;4.05;;;3.10;;
54959;SDS011;40860;51.710;8.736;2023-07-08T08:18:41;3.95;;;3.65;;
54959;SDS011;40860;51.710;8.736;2023-07-08T08:22:44;3.85;;;3.55;;
54959;SDS011;40860;51.710;8.736;2023-07-08T08:26:48;4.55;;;3.42;;
54959;SDS011;40860;51.710;8.736;2023-07-08T08:30:51;5.35;;;3.60;;
54959;SDS011;40860;51.710;8.736;2023-07-08T08:34:54;8.98;;;3.75;;
54959;SDS011;40860;51.710;8.736;2023-07-08T08:38:57;6.03;;;3.70;;
54959;SDS011;40860;51.710;8.736;2023-07-08T08:43:02;4.50;;;3.63;;
54959;SDS011;40860;51.710;8.736;2023-07-08T08:47:06;6.50;;;3.97;;
54959;SDS011;40860;51.710;8.736;2023-07-08T08:51:28;6.13;;;3.80;;
54959;SDS011;40860;51.710;8.736;2023-07-08T08:55:33;7.10;;;6.18;;
54959;SDS011;40860;51.710;8.736;2023-07-08T08:59:43;4.50;;;4.10;;
54959;SDS011;40860;51.710;8.736;2023-07-08T09:03:52;4.97;;;3.90;;
54959;SDS011;40860;51.710;8.736;2023-07-08T09:08:00;5.57;;;4.07;;
54959;SDS011;40860;51.710;8.736;2023-07-08T09:12:10;5.80;;;3.83;;
54959;SDS011;40860;51.710;8.736;2023-07-08T09:16:25;6.32;;;3.80;;
54959;SDS011;40860;51.710;8.736;2023-07-08T09:20:42;4.03;;;3.60;;
54959;SDS011;40860;51.710;8.736;2023-07-08T09:24:48;6.43;;;4.30;;
54959;SDS011;40860;51.710;8.736;2023-07-08T09:28:53;7.43;;;3.95;;
54959;SDS011;40860;51.710;8.736;2023-07-08T09:32:58;4.35;;;3.97;;
54959;SDS011;40860;51.710;8.736;2023-07-08T09:37:05;4.78;;;4.00;;
54959;SDS011;40860;51.710;8.736;2023-07-08T09:41:28;4.32;;;3.92;;
54959;SDS011;40860;51.710;8.736;2023-07-08T09:45:39;4.22;;;3.80;;
54959;SDS011;40860;51.710;8.736;2023-07-08T09:49:45;4.88;;;4.38;;
54959;SDS011;40860;51.710;8.736;2023-07-08T09:53:49;6.15;;;3.90;;
54959;SDS011;40860;51.710;8.736;2023-07-08T09:57:53;5.07;;;4.25;;
54959;SDS011;40860;51.710;8.736;2023-07-08T10:02:01;6.05;;;4.15;;
54959;SDS011;40860;51.710;8.736;2023-07-08T10:06:14;6.28;;;4.30;;
54959;SDS011;40860;51.710;8.736;2023-07-08T10:10:22;4.40;;;4.00;;
54959;SDS011;40860;51.710;8.736;2023-07-08T10:14:31;4.85;;;4.45;;
54959;SDS011;40860;51.710;8.736;2023-07-08T10:18:37;6.35;;;3.97;;
54959;SDS011;40860;51.710;8.736;2023-07-08T10:22:42;4.97;;;4.50;;
54959;SDS011;40860;51.710;8.736;2023-07-08T10:26:57;5.50;;;4.82;;
54959;SDS011;40860;51.710;8.736;2023-07-08T10:31:11;4.95;;;4.40;;
54959;SDS011;40860;51.710;8.736;2023-07-08T10:35:25;7.03;;;4.25;;
54959;SDS011;40860;51.710;8.736;2023-07-08T10:44:05;6.75;;;4.55;;
54959;SDS011;40860;51.710;8.736;2023-07-08T10:48:20;7.65;;;4.70;;
54959;SDS011;40860;51.710;8.736;2023-07-08T10:52:37;6.10;;;4.65;;
54959;SDS011;40860;51.710;8.736;2023-07-08T10:56:52;7.15;;;4.60;;
54959;SDS011;40860;51.710;8.736;2023-07-08T11:00:59;4.78;;;4.38;;
54959;SDS011;40860;51.710;8.736;2023-07-08T11:05:11;4.90;;;4.40;;
54959;SDS011;40860;51.710;8.736;2023-07-08T11:09:22;5.32;;;4.60;;
54959;SDS011;40860;51.710;8.736;2023-07-08T11:13:30;6.38;;;4.93;;
54959;SDS011;40860;51.710;8.736;2023-07-08T11:17:38;5.25;;;4.75;;
54959;SDS011;40860;51.710;8.736;2023-07-08T11:21:45;5.22;;;4.68;;
54959;SDS011;40860;51.710;8.736;2023-07-08T11:25:50;5.22;;;4.70;;
54959;SDS011;40860;51.710;8.736;2023-07-08T11:30:12;4.95;;;4.45;;
54959;SDS011;40860;51.710;8.736;2023-07-08T11:34:17;5.10;;;4.60;;
54959;SDS011;40860;51.710;8.736;2023-07-08T11:38:21;5.25;;;4.80;;
54959;SDS011;40860;51.710;8.736;2023-07-08T11:42:25;5.35;;;4.70;;
54959;SDS011;40860;51.710;8.736;2023-07-08T11:46:38;5.20;;;4.70;;
54959;SDS011;40860;51.710;8.736;2023-07-08T11:50:56;5.40;;;4.90;;
54959;SDS011;40860;51.710;8.736;2023-07-08T11:55:03;8.48;;;4.90;;
54959;SDS011;40860;51.710;8.736;2023-07-08T11:59:24;4.95;;;4.55;;
54959;SDS011;40860;51.710;8.736;2023-07-08T12:03:31;5.20;;;4.80;;
54959;SDS011;40860;51.710;8.736;2023-07-08T12:07:37;6.88;;;5.18;;
54959;SDS011;40860;51.710;8.736;2023-07-08T12:11:44;9.80;;;4.75;;
54959;SDS011;40860;51.710;8.736;2023-07-08T12:15:48;8.35;;;5.22;;
54959;SDS011;40860;51.710;8.736;2023-07-08T12:19:52;5.82;;;5.32;;
54959;SDS011;40860;51.710;8.736;2023-07-08T12:24:02;5.25;;;4.72;;
54959;SDS011;40860;51.710;8.736;2023-07-08T12:28:06;5.20;;;4.78;;
54959;SDS011;40860;51.710;8.736;2023-07-08T12:32:11;7.75;;;4.90;;
54959;SDS011;40860;51.710;8.736;2023-07-08T12:36:18;7.72;;;5.28;;
54959;SDS011;40860;51.710;8.736;2023-07-08T12:40:21;5.30;;;4.80;;
54959;SDS011;40860;51.710;8.736;2023-07-08T12:44:25;5.20;;;4.75;;
54959;SDS011;40860;51.710;8.736;2023-07-08T12:48:31;5.25;;;4.60;;
54959;SDS011;40860;51.710;8.736;2023-07-08T12:52:35;5.75;;;4.97;;
54959;SDS011;40860;51.710;8.736;2023-07-08T12:56:38;5.30;;;4.85;;
54959;SDS011;40860;51.710;8.736;2023-07-08T13:00:42;7.57;;;4.55;;
54959;SDS011;40860;51.710;8.736;2023-07-08T13:04:45;5.43;;;4.93;;
54959;SDS011;40860;51.710;8.736;2023-07-08T13:08:52;6.15;;;5.10;;
54959;SDS011;40860;51.710;8.736;2023-07-08T13:12:58;7.93;;;4.80;;
54959;SDS011;40860;51.710;8.736;2023-07-08T13:17:03;5.40;;;4.60;;
54959;SDS011;40860;51.710;8.736;2023-07-08T13:21:08;5.32;;;4.82;;
54959;SDS011;40860;51.710;8.736;2023-07-08T13:25:16;6.20;;;5.20;;
54959;SDS011;40860;51.710;8.736;2023-07-08T13:29:23;5.50;;;4.93;;
54959;SDS011;40860;51.710;8.736;2023-07-08T13:33:28;7.00;;;4.85;;
54959;SDS011;40860;51.710;8.736;2023-07-08T13:37:32;6.43;;;5.03;;
54959;SDS011;40860;51.710;8.736;2023-07-08T13:41:36;5.30;;;4.80;;
54959;SDS011;40860;51.710;8.736;2023-07-08T13:45:43;5.47;;;5.05;;
54959;SDS011;40860;51.710;8.736;2023-07-08T13:49:50;6.13;;;5.53;;
54959;SDS011;40860;51.710;8.736;2023-07-08T13:53:59;8.15;;;5.20;;
54959;SDS011;40860;51.710;8.736;2023-07-08T13:58:13;6.30;;;5.40;;
54959;SDS011;40860;51.710;8.736;2023-07-08T14:02:19;6.05;;;5.38;;
54959;SDS011;40860;51.710;8.736;2023-07-08T14:06:24;7.63;;;5.22;;
54959;SDS011;40860;51.710;8.736;2023-07-08T14:10:28;6.22;;;5.63;;
54959;SDS011;40860;51.710;8.736;2023-07-08T14:14:32;5.88;;;5.28;;
54959;SDS011;40860;51.710;8.736;2023-07-08T14:18:35;5.75;;;5.35;;
54959;SDS011;40860;51.710;8.736;2023-07-08T14:22:38;5.55;;;5.00;;
54959;SDS011;40860;51.710;8.736;2023-07-08T14:26:41;5.90;;;5.30;;
54959;SDS011;40860;51.710;8.736;2023-07-08T14:30:47;5.97;;;5.38;;
54959;SDS011;40860;51.710;8.736;2023-07-08T14:34:51;6.68;;;6.07;;
54959;SDS011;40860;51.710;8.736;2023-07-08T14:38:55;7.13;;;5.50;;
54959;SDS011;40860;51.710;8.736;2023-07-08T14:43:00;6.78;;;6.20;;
54959;SDS011;40860;51.710;8.736;2023-07-08T14:47:07;6.43;;;5.55;;
54959;SDS011;40860;51.710;8.736;2023-07-08T14:51:11;6.22;;;5.70;;
54959;SDS011;40860;51.710;8.736;2023-07-08T14:55:14;6.00;;;5.22;;
54959;SDS011;40860;51.710;8.736;2023-07-08T14:59:17;7.88;;;5.88;;
54959;SDS011;40860;51.710;8.736;2023-07-08T15:03:24;7.82;;;5.45;;
54959;SDS011;40860;51.710;8.736;2023-07-08T15:07:28;6.55;;;5.63;;
54959;SDS011;40860;51.710;8.736;2023-07-08T15:11:32;7.20;;;5.18;;
54959;SDS011;40860;51.710;8.736;2023-07-08T15:15:35;6.10;;;5.60;;
54959;SDS011;40860;51.710;8.736;2023-07-08T15:19:39;6.07;;;5.57;;
54959;SDS011;40860;51.710;8.736;2023-07-08T15:23:43;6.60;;;5.68;;
54959;SDS011;40860;51.710;8.736;2023-07-08T15:27:47;6.63;;;5.93;;
54959;SDS011;40860;51.710;8.736;2023-07-08T15:31:52;6.47;;;5.40;;
54959;SDS011;40860;51.710;8.736;2023-07-08T15:35:56;5.63;;;5.13;;
54959;SDS011;40860;51.710;8.736;2023-07-08T15:39:59;6.50;;;5.45;;
54959;SDS011;40860;51.710;8.736;2023-07-08T15:44:02;6.18;;;5.45;;
54959;SDS011;40860;51.710;8.736;2023-07-08T15:48:07;6.40;;;5.30;;
54959;SDS011;40860;51.710;8.736;2023-07-08T15:52:15;6.30;;;5.55;;
54959;SDS011;40860;51.710;8.736;2023-07-08T15:56:18;6.90;;;5.70;;
54959;SDS011;40860;51.710;8.736;2023-07-08T16:00:23;6.15;;;5.55;;
54959;SDS011;40860;51.710;8.736;2023-07-08T16:04:31;6.65;;;6.05;;
54959;SDS011;40860;51.710;8.736;2023-07-08T16:08:37;7.32;;;6.22;;
54959;SDS011;40860;51.710;8.736;2023-07-08T16:12:40;6.70;;;5.45;;
54959;SDS011;40860;51.710;8.736;2023-07-08T16:16:44;6.80;;;5.57;;
54959;SDS011;40860;51.710;8.736;2023-07-08T16:20:47;5.40;;;4.90;;
54959;SDS011;40860;51.710;8.736;2023-07-08T16:24:52;5.95;;;5.00;;
54959;SDS011;40860;51.710;8.736;2023-07-08T16:28:55;9.05;;;5.03;;
54959;SDS011;40860;51.710;8.736;2023-07-08T16:32:58;5.95;;;5.45;;
54959;SDS011;40860;51.710;8.736;2023-07-08T16:37:01;6.53;;;5.80;;
54959;SDS011;40860;51.710;8.736;2023-07-08T16:41:06;6.68;;;5.90;;
54959;SDS011;40860;51.710;8.736;2023-07-08T16:45:13;6.20;;;5.60;;
54959;SDS011;40860;51.710;8.736;2023-07-08T16:49:17;5.90;;;5.30;;
54959;SDS011;40860;51.710;8.736;2023-07-08T16:53:20;5.95;;;5.28;;
54959;SDS011;40860;51.710;8.736;2023-07-08T16:57:24;6.35;;;5.43;;
54959;SDS011;40860;51.710;8.736;2023-07-08T17:01:32;6.35;;;5.50;;
54959;SDS011;40860;51.710;8.736;2023-07-08T17:05:35;6.22;;;5.38;;
54959;SDS011;40860;51.710;8.736;2023-07-08T17:09:38;7.45;;;5.82;;
54959;SDS011;40860;51.710;8.736;2023-07-08T17:13:42;5.95;;;5.45;;
54959;SDS011;40860;51.710;8.736;2023-07-08T17:17:47;5.90;;;5.35;;
54959;SDS011;40860;51.710;8.736;2023-07-08T17:21:55;7.35;;;5.68;;
54959;SDS011;40860;51.710;8.736;2023-07-08T17:25:58;5.72;;;4.93;;
54959;SDS011;40860;51.710;8.736;2023-07-08T17:30:02;6.28;;;5.68;;
54959;SDS011;40860;51.710;8.736;2023-07-08T17:34:07;6.38;;;5.68;;
54959;SDS011;40860;51.710;8.736;2023-07-08T17:38:20;6.28;;;5.70;;
54959;SDS011;40860;51.710;8.736;2023-07-08T17:42:24;8.55;;;6.45;;
54959;SDS011;40860;51.710;8.736;2023-07-08T17:46:28;8.00;;;5.43;;
54959;SDS011;40860;51.710;8.736;2023-07-08T17:50:31;8.25;;;5.60;;
54959;SDS011;40860;51.710;8.736;2023-07-08T17:54:34;7.55;;;5.97;;
54959;SDS011;40860;51.710;8.736;2023-07-08T17:58:37;6.00;;;5.40;;
54959;SDS011;40860;51.710;8.736;2023-07-08T18:02:41;7.72;;;5.43;;
54959;SDS011;40860;51.710;8.736;2023-07-08T18:06:44;6.55;;;5.80;;
54959;SDS011;40860;51.710;8.736;2023-07-08T18:10:47;6.35;;;5.75;;
54959;SDS011;40860;51.710;8.736;2023-07-08T18:14:50;7.03;;;5.97;;
54959;SDS011;40860;51.710;8.736;2023-07-08T18:18:54;6.22;;;5.60;;
54959;SDS011;40860;51.710;8.736;2023-07-08T18:22:57;6.45;;;5.85;;
54959;SDS011;40860;51.710;8.736;2023-07-08T18:27:00;6.32;;;5.68;;
54959;SDS011;40860;51.710;8.736;2023-07-08T18:31:04;6.50;;;5.90;;
54959;SDS011;40860;51.710;8.736;2023-07-08T18:35:15;6.25;;;5.65;;
54959;SDS011;40860;51.710;8.736;2023-07-08T18:39:19;5.70;;;5.18;;
54959;SDS011;40860;51.710;8.736;2023-07-08T18:43:23;7.63;;;6.18;;
54959;SDS011;40860;51.710;8.736;2023-07-08T18:47:27;5.95;;;5.35;;
54959;SDS011;40860;51.710;8.736;2023-07-08T18:51:39;7.07;;;6.38;;
54959;SDS011;40860;51.710;8.736;2023-07-08T18:55:44;9.15;;;5.95;;
54959;SDS011;40860;51.710;8.736;2023-07-08T18:59:47;7.13;;;5.97;;
54959;SDS011;40860;51.710;8.736;2023-07-08T19:03:50;6.38;;;5.78;;
54959;SDS011;40860;51.710;8.736;2023-07-08T19:07:55;6.57;;;5.93;;
54959;SDS011;40860;51.710;8.736;2023-07-08T19:11:58;6.22;;;5.55;;
54959;SDS011;40860;51.710;8.736;2023-07-08T19:16:01;6.38;;;5.80;;
54959;SDS011;40860;51.710;8.736;2023-07-08T19:20:04;6.63;;;5.53;;
54959;SDS011;40860;51.710;8.736;2023-07-08T19:24:12;6.80;;;6.10;;
54959;SDS011;40860;51.710;8.736;2023-07-08T19:28:37;8.10;;;6.18;;
54959;SDS011;40860;51.710;8.736;2023-07-08T19:32:42;7.07;;;6.05;;
54959;SDS011;40860;51.710;8.736;2023-07-08T19:36:49;6.10;;;5.50;;
54959;SDS011;40860;51.710;8.736;2023-07-08T19:40:56;7.13;;;6.32;;
54959;SDS011;40860;51.710;8.736;2023-07-08T19:44:59;9.18;;;6.63;;
54959;SDS011;40860;51.710;8.736;2023-07-08T19:49:02;6.75;;;5.78;;
54959;SDS011;40860;51.710;8.736;2023-07-08T19:53:05;8.68;;;6.10;;
54959;SDS011;40860;51.710;8.736;2023-07-08T19:57:10;6.30;;;5.65;;
54959;SDS011;40860;51.710;8.736;2023-07-08T20:01:13;6.75;;;6.05;;
54959;SDS011;40860;51.710;8.736;2023-07-08T20:05:16;6.40;;;5.80;;
54959;SDS011;40860;51.710;8.736;2023-07-08T20:09:20;7.07;;;6.00;;
54959;SDS011;40860;51.710;8.736;2023-07-08T20:13:29;6.97;;;6.15;;
54959;SDS011;40860;51.710;8.736;2023-07-08T20:17:33;8.40;;;5.65;;
54959;SDS011;40860;51.710;8.736;2023-07-08T20:21:36;7.03;;;6.15;;
54959;SDS011;40860;51.710;8.736;2023-07-08T20:25:40;7.43;;;6.28;;
54959;SDS011;40860;51.710;8.736;2023-07-08T20:29:47;7.32;;;5.90;;
54959;SDS011;40860;51.710;8.736;2023-07-08T20:33:50;7.63;;;5.55;;
54959;SDS011;40860;51.710;8.736;2023-07-08T20:37:54;8.27;;;6.38;;
54959;SDS011;40860;51.710;8.736;2023-07-08T20:41:57;6.85;;;6.18;;
54959;SDS011;40860;51.710;8.736;2023-07-08T20:46:14;7.78;;;5.88;;
54959;SDS011;40860;51.710;8.736;2023-07-08T20:50:23;6.68;;;5.70;;
54959;SDS011;40860;51.710;8.736;2023-07-08T20:54:27;9.05;;;5.82;;
54959;SDS011;40860;51.710;8.736;2023-07-08T20:58:29;6.70;;;5.95;;
54959;SDS011;40860;51.710;8.736;2023-07-08T21:02:34;6.50;;;5.90;;
54959;SDS011;40860;51.710;8.736;2023-07-08T21:06:36;7.35;;;6.13;;
54959;SDS011;40860;51.710;8.736;2023-07-08T21:10:40;7.65;;;6.25;;
54959;SDS011;40860;51.710;8.736;2023-07-08T21:14:42;6.55;;;5.85;;
54959;SDS011;40860;51.710;8.736;2023-07-08T21:18:47;7.18;;;5.60;;
54959;SDS011;40860;51.710;8.736;2023-07-08T21:22:53;6.05;;;5.35;;
54959;SDS011;40860;51.710;8.736;2023-07-08T21:26:57;7.82;;;6.00;;
54959;SDS011;40860;51.710;8.736;2023-07-08T21:31:00;6.88;;;5.55;;
54959;SDS011;40860;51.710;8.736;2023-07-08T21:35:05;5.90;;;5.15;;
54959;SDS011;40860;51.710;8.736;2023-07-08T21:39:12;7.38;;;5.97;;
54959;SDS011;40860;51.710;8.736;2023-07-08T21:43:21;7.07;;;5.57;;
54959;SDS011;40860;51.710;8.736;2023-07-08T21:47:26;8.15;;;5.72;;
54959;SDS011;40860;51.710;8.736;2023-07-08T21:51:30;5.82;;;5.20;;
54959;SDS011;40860;51.710;8.736;2023-07-08T21:55:34;7.93;;;6.22;;
54959;SDS011;40860;51.710;8.736;2023-07-08T21:59:36;6.70;;;5.78;;
54959;SDS011;40860;51.710;8.736;2023-07-08T22:03:39;6.53;;;5.93;;
54959;SDS011;40860;51.710;8.736;2023-07-08T22:07:43;6.55;;;5.60;;
54959;SDS011;40860;51.710;8.736;2023-07-08T22:11:47;8.02;;;6.00;;
54959;SDS011;40860;51.710;8.736;2023-07-08T22:15:50;6.30;;;5.70;;
54959;SDS011;40860;51.710;8.736;2023-07-08T22:19:54;8.10;;;5.90;;
54959;SDS011;40860;51.710;8.736;2023-07-08T22:23:59;6.22;;;5.60;;
54959;SDS011;40860;51.710;8.736;2023-07-08T22:28:03;6.72;;;5.60;;
54959;SDS011;40860;51.710;8.736;2023-07-08T22:32:08;6.43;;;5.55;;
54959;SDS011;40860;51.710;8.736;2023-07-08T22:36:11;7.20;;;5.78;;
54959;SDS011;40860;51.710;8.736;2023-07-08T22:40:15;8.85;;;5.88;;
54959;SDS011;40860;51.710;8.736;2023-07-08T22:44:21;6.03;;;5.30;;
54959;SDS011;40860;51.710;8.736;2023-07-08T22:48:24;6.90;;;5.82;;
54959;SDS011;40860;51.710;8.736;2023-07-08T22:52:28;6.95;;;6.10;;
54959;SDS011;40860;51.710;8.736;2023-07-08T22:56:34;6.70;;;6.00;;
54959;SDS011;40860;51.710;8.736;2023-07-08T23:00:37;9.40;;;6.20;;
54959;SDS011;40860;51.710;8.736;2023-07-08T23:04:40;7.18;;;6.10;;
54959;SDS011;40860;51.710;8.736;2023-07-08T23:08:43;7.97;;;6.55;;
54959;SDS011;40860;51.710;8.736;2023-07-08T23:12:47;7.63;;;6.07;;
54959;SDS011;40860;51.710;8.736;2023-07-08T23:16:50;6.18;;;5.57;;
54959;SDS011;40860;51.710;8.736;2023-07-08T23:20:53;7.03;;;5.88;;
54959;SDS011;40860;51.710;8.736;2023-07-08T23:24:56;7.28;;;6.00;;
54959;SDS011;40860;51.710;8.736;2023-07-08T23:29:00;7.28;;;6.13;;
54959;SDS011;40860;51.710;8.736;2023-07-08T23:33:05;6.93;;;6.20;;
54959;SDS011;40860;51.710;8.736;2023-07-08T23:37:13;6.82;;;6.22;;
54959;SDS011;40860;51.710;8.736;2023-07-08T23:41:17;8.48;;;6.38;;
54959;SDS011;40860;51.710;8.736;2023-07-08T23:45:22;8.00;;;6.78;;
54959;SDS011;40860;51.710;8.736;2023-07-08T23:49:25;7.70;;;5.88;;
54959;SDS011;40860;51.710;8.736;2023-07-08T23:53:30;7.45;;;6.13;;
54959;SDS011;40860;51.710;8.736;2023-07-08T23:57:33;9.50;;;6.38;;
